sensor_id;sensor_type;location;lat;lon;timestamp;P1;durP1;ratioP1;P2;durP2;ratioP2
44572;SDS011;31762;45.420;10.072;2022-07-22T00:00:51;2.38;;;1.55;;
44572;SDS011;31762;45.420;10.072;2022-07-22T00:05:53;3.13;;;1.80;;
44572;SDS011;31762;45.420;10.072;2022-07-22T00:10:55;3.53;;;2.00;;
44572;SDS011;31762;45.420;10.072;2022-07-22T00:15:57;1.77;;;1.60;;
44572;SDS011;31762;45.420;10.072;2022-07-22T00:20:59;2.72;;;1.35;;
44572;SDS011;31762;45.420;10.072;2022-07-22T00:26:00;3.50;;;1.30;;
44572;SDS011;31762;45.420;10.072;2022-07-22T00:31:02;2.67;;;1.40;;
44572;SDS011;31762;45.420;10.072;2022-07-22T00:36:05;3.35;;;1.60;;
44572;SDS011;31762;45.420;10.072;2022-07-22T00:41:07;2.93;;;1.50;;
44572;SDS011;31762;45.420;10.072;2022-07-22T00:46:08;1.58;;;1.30;;
44572;SDS011;31762;45.420;10.072;2022-07-22T00:51:10;3.47;;;1.60;;
44572;SDS011;31762;45.420;10.072;2022-07-22T00:56:13;3.60;;;1.50;;
44572;SDS011;31762;45.420;10.072;2022-07-22T01:01:15;3.55;;;1.25;;
44572;SDS011;31762;45.420;10.072;2022-07-22T01:06:18;1.53;;;1.00;;
44572;SDS011;31762;45.420;10.072;2022-07-22T01:11:19;2.45;;;1.20;;
44572;SDS011;31762;45.420;10.072;2022-07-22T01:16:21;4.03;;;1.20;;
44572;SDS011;31762;45.420;10.072;2022-07-22T01:21:23;2.05;;;1.60;;
44572;SDS011;31762;45.420;10.072;2022-07-22T01:26:25;1.50;;;1.30;;
44572;SDS011;31762;45.420;10.072;2022-07-22T01:31:27;1.80;;;1.30;;
44572;SDS011;31762;45.420;10.072;2022-07-22T01:36:29;2.30;;;1.33;;
44572;SDS011;31762;45.420;10.072;2022-07-22T01:41:31;2.08;;;1.70;;
44572;SDS011;31762;45.420;10.072;2022-07-22T01:46:33;2.08;;;1.45;;
44572;SDS011;31762;45.420;10.072;2022-07-22T01:51:35;3.57;;;1.60;;
44572;SDS011;31762;45.420;10.072;2022-07-22T01:56:37;2.40;;;1.27;;
44572;SDS011;31762;45.420;10.072;2022-07-22T02:01:39;2.92;;;1.70;;
44572;SDS011;31762;45.420;10.072;2022-07-22T02:06:41;3.55;;;1.60;;
44572;SDS011;31762;45.420;10.072;2022-07-22T02:11:43;4.57;;;1.70;;
44572;SDS011;31762;45.420;10.072;2022-07-22T02:16:45;3.28;;;1.77;;
44572;SDS011;31762;45.420;10.072;2022-07-22T02:21:47;2.50;;;1.77;;
44572;SDS011;31762;45.420;10.072;2022-07-22T02:26:48;2.03;;;1.60;;
44572;SDS011;31762;45.420;10.072;2022-07-22T02:31:50;4.15;;;2.38;;
44572;SDS011;31762;45.420;10.072;2022-07-22T02:36:52;3.33;;;1.67;;
44572;SDS011;31762;45.420;10.072;2022-07-22T02:41:54;3.55;;;2.05;;
44572;SDS011;31762;45.420;10.072;2022-07-22T02:46:56;1.83;;;1.60;;
44572;SDS011;31762;45.420;10.072;2022-07-22T02:51:58;6.55;;;2.03;;
44572;SDS011;31762;45.420;10.072;2022-07-22T02:57:00;2.53;;;2.08;;
44572;SDS011;31762;45.420;10.072;2022-07-22T03:02:01;2.33;;;1.90;;
44572;SDS011;31762;45.420;10.072;2022-07-22T03:07:03;2.97;;;2.08;;
44572;SDS011;31762;45.420;10.072;2022-07-22T03:12:05;4.43;;;2.35;;
44572;SDS011;31762;45.420;10.072;2022-07-22T03:17:07;3.90;;;2.65;;
44572;SDS011;31762;45.420;10.072;2022-07-22T03:22:09;4.97;;;2.10;;
44572;SDS011;31762;45.420;10.072;2022-07-22T03:27:11;4.95;;;3.22;;
44572;SDS011;31762;45.420;10.072;2022-07-22T03:32:12;5.32;;;3.17;;
44572;SDS011;31762;45.420;10.072;2022-07-22T03:37:14;4.90;;;3.40;;
44572;SDS011;31762;45.420;10.072;2022-07-22T03:42:16;4.72;;;2.88;;
44572;SDS011;31762;45.420;10.072;2022-07-22T03:47:18;4.43;;;3.03;;
44572;SDS011;31762;45.420;10.072;2022-07-22T03:52:21;6.78;;;4.40;;
44572;SDS011;31762;45.420;10.072;2022-07-22T03:57:23;6.70;;;4.97;;
44572;SDS011;31762;45.420;10.072;2022-07-22T04:02:25;6.97;;;4.93;;
44572;SDS011;31762;45.420;10.072;2022-07-22T04:07:27;7.82;;;6.03;;
44572;SDS011;31762;45.420;10.072;2022-07-22T04:12:29;9.15;;;6.38;;
44572;SDS011;31762;45.420;10.072;2022-07-22T04:17:30;6.43;;;4.97;;
44572;SDS011;31762;45.420;10.072;2022-07-22T04:22:32;7.45;;;5.43;;
44572;SDS011;31762;45.420;10.072;2022-07-22T04:27:35;10.20;;;7.78;;
44572;SDS011;31762;45.420;10.072;2022-07-22T04:32:37;7.38;;;6.68;;
44572;SDS011;31762;45.420;10.072;2022-07-22T04:37:39;7.37;;;6.23;;
44572;SDS011;31762;45.420;10.072;2022-07-22T04:42:40;8.70;;;7.40;;
44572;SDS011;31762;45.420;10.072;2022-07-22T04:47:42;9.27;;;8.00;;
44572;SDS011;31762;45.420;10.072;2022-07-22T04:52:44;7.83;;;6.97;;
44572;SDS011;31762;45.420;10.072;2022-07-22T04:57:50;8.20;;;7.07;;
44572;SDS011;31762;45.420;10.072;2022-07-22T05:02:52;9.40;;;7.45;;
44572;SDS011;31762;45.420;10.072;2022-07-22T05:07:54;8.10;;;6.90;;
44572;SDS011;31762;45.420;10.072;2022-07-22T05:12:55;8.27;;;7.30;;
44572;SDS011;31762;45.420;10.072;2022-07-22T05:17:57;8.40;;;7.13;;
44572;SDS011;31762;45.420;10.072;2022-07-22T05:22:59;8.50;;;7.40;;
44572;SDS011;31762;45.420;10.072;2022-07-22T05:28:01;9.68;;;7.05;;
44572;SDS011;31762;45.420;10.072;2022-07-22T05:33:03;9.23;;;6.77;;
44572;SDS011;31762;45.420;10.072;2022-07-22T05:38:04;8.55;;;6.70;;
44572;SDS011;31762;45.420;10.072;2022-07-22T05:43:06;7.60;;;6.47;;
44572;SDS011;31762;45.420;10.072;2022-07-22T05:48:08;7.78;;;6.70;;
44572;SDS011;31762;45.420;10.072;2022-07-22T05:53:09;9.20;;;7.20;;
44572;SDS011;31762;45.420;10.072;2022-07-22T05:58:11;7.50;;;6.60;;
44572;SDS011;31762;45.420;10.072;2022-07-22T06:03:13;7.03;;;5.95;;
44572;SDS011;31762;45.420;10.072;2022-07-22T06:08:19;7.90;;;6.55;;
44572;SDS011;31762;45.420;10.072;2022-07-22T06:13:21;9.60;;;6.20;;
44572;SDS011;31762;45.420;10.072;2022-07-22T06:18:22;9.30;;;5.75;;
44572;SDS011;31762;45.420;10.072;2022-07-22T06:23:24;9.43;;;4.68;;
44572;SDS011;31762;45.420;10.072;2022-07-22T06:28:26;5.70;;;4.88;;
44572;SDS011;31762;45.420;10.072;2022-07-22T06:33:28;5.00;;;3.50;;
44572;SDS011;31762;45.420;10.072;2022-07-22T06:38:31;6.82;;;3.90;;
44572;SDS011;31762;45.420;10.072;2022-07-22T06:43:41;7.20;;;3.60;;
44572;SDS011;31762;45.420;10.072;2022-07-22T06:48:43;5.13;;;3.22;;
44572;SDS011;31762;45.420;10.072;2022-07-22T06:53:45;5.13;;;3.27;;
44572;SDS011;31762;45.420;10.072;2022-07-22T06:58:49;3.40;;;3.10;;
44572;SDS011;31762;45.420;10.072;2022-07-22T07:03:51;4.72;;;3.53;;
44572;SDS011;31762;45.420;10.072;2022-07-22T07:08:53;5.43;;;4.07;;
44572;SDS011;31762;45.420;10.072;2022-07-22T07:13:55;4.47;;;3.85;;
44572;SDS011;31762;45.420;10.072;2022-07-22T07:18:59;7.32;;;4.50;;
44572;SDS011;31762;45.420;10.072;2022-07-22T07:24:02;5.80;;;4.47;;
44572;SDS011;31762;45.420;10.072;2022-07-22T07:29:04;7.07;;;4.90;;
44572;SDS011;31762;45.420;10.072;2022-07-22T07:34:06;5.05;;;3.75;;
44572;SDS011;31762;45.420;10.072;2022-07-22T07:39:08;6.78;;;4.55;;
44572;SDS011;31762;45.420;10.072;2022-07-22T07:44:10;5.95;;;3.83;;
44572;SDS011;31762;45.420;10.072;2022-07-22T07:49:11;4.03;;;3.38;;
44572;SDS011;31762;45.420;10.072;2022-07-22T07:54:13;4.47;;;3.20;;
44572;SDS011;31762;45.420;10.072;2022-07-22T07:59:17;4.60;;;3.45;;
44572;SDS011;31762;45.420;10.072;2022-07-22T08:04:29;6.82;;;3.30;;
44572;SDS011;31762;45.420;10.072;2022-07-22T08:09:38;4.80;;;3.90;;
44572;SDS011;31762;45.420;10.072;2022-07-22T08:14:39;5.15;;;3.67;;
44572;SDS011;31762;45.420;10.072;2022-07-22T08:19:42;5.05;;;3.97;;
44572;SDS011;31762;45.420;10.072;2022-07-22T08:24:45;4.10;;;2.50;;
44572;SDS011;31762;45.420;10.072;2022-07-22T08:29:46;4.63;;;2.53;;
44572;SDS011;31762;45.420;10.072;2022-07-22T08:34:48;4.33;;;2.47;;
44572;SDS011;31762;45.420;10.072;2022-07-22T08:39:50;5.90;;;2.47;;
44572;SDS011;31762;45.420;10.072;2022-07-22T08:44:52;4.78;;;2.53;;
44572;SDS011;31762;45.420;10.072;2022-07-22T08:50:05;4.97;;;2.40;;
44572;SDS011;31762;45.420;10.072;2022-07-22T08:55:08;4.60;;;2.33;;
44572;SDS011;31762;45.420;10.072;2022-07-22T09:00:12;5.97;;;3.47;;
44572;SDS011;31762;45.420;10.072;2022-07-22T09:05:16;2.77;;;2.33;;
44572;SDS011;31762;45.420;10.072;2022-07-22T09:10:39;4.80;;;2.43;;
44572;SDS011;31762;45.420;10.072;2022-07-22T09:15:54;4.60;;;2.60;;
44572;SDS011;31762;45.420;10.072;2022-07-22T09:20:57;4.37;;;2.70;;
44572;SDS011;31762;45.420;10.072;2022-07-22T09:25:59;4.75;;;2.83;;
44572;SDS011;31762;45.420;10.072;2022-07-22T09:31:01;5.30;;;2.43;;
44572;SDS011;31762;45.420;10.072;2022-07-22T09:36:04;2.35;;;2.08;;
44572;SDS011;31762;45.420;10.072;2022-07-22T09:41:06;3.65;;;2.17;;
44572;SDS011;31762;45.420;10.072;2022-07-22T09:46:09;5.67;;;2.07;;
44572;SDS011;31762;45.420;10.072;2022-07-22T09:51:11;3.17;;;2.08;;
44572;SDS011;31762;45.420;10.072;2022-07-22T09:56:13;3.10;;;2.22;;
44572;SDS011;31762;45.420;10.072;2022-07-22T10:01:15;3.70;;;2.10;;
44572;SDS011;31762;45.420;10.072;2022-07-22T10:06:19;3.80;;;1.90;;
44572;SDS011;31762;45.420;10.072;2022-07-22T10:11:20;4.17;;;2.00;;
44572;SDS011;31762;45.420;10.072;2022-07-22T10:16:23;4.68;;;1.73;;
44572;SDS011;31762;45.420;10.072;2022-07-22T10:21:31;2.92;;;1.40;;
44572;SDS011;31762;45.420;10.072;2022-07-22T10:26:50;2.30;;;1.60;;
44572;SDS011;31762;45.420;10.072;2022-07-22T10:47:58;3.00;;;1.52;;
44572;SDS011;31762;45.420;10.072;2022-07-22T10:53:03;2.30;;;1.40;;
44572;SDS011;31762;45.420;10.072;2022-07-22T11:03:36;2.63;;;1.50;;
44572;SDS011;31762;45.420;10.072;2022-07-22T11:08:40;1.80;;;1.57;;
44572;SDS011;31762;45.420;10.072;2022-07-22T11:13:43;1.83;;;1.17;;
44572;SDS011;31762;45.420;10.072;2022-07-22T11:18:51;3.45;;;1.30;;
44572;SDS011;31762;45.420;10.072;2022-07-22T11:23:55;3.05;;;1.20;;
44572;SDS011;31762;45.420;10.072;2022-07-22T11:28:59;2.40;;;1.42;;
44572;SDS011;31762;45.420;10.072;2022-07-22T11:34:11;1.20;;;1.03;;
44572;SDS011;31762;45.420;10.072;2022-07-22T11:39:17;1.42;;;0.90;;
44572;SDS011;31762;45.420;10.072;2022-07-22T11:44:21;1.88;;;0.90;;
44572;SDS011;31762;45.420;10.072;2022-07-22T11:49:25;1.42;;;0.95;;
44572;SDS011;31762;45.420;10.072;2022-07-22T11:54:31;2.08;;;0.90;;
44572;SDS011;31762;45.420;10.072;2022-07-22T11:59:33;2.83;;;0.63;;
44572;SDS011;31762;45.420;10.072;2022-07-22T12:04:36;1.30;;;1.00;;
44572;SDS011;31762;45.420;10.072;2022-07-22T12:09:39;1.20;;;1.00;;
44572;SDS011;31762;45.420;10.072;2022-07-22T12:14:46;2.40;;;0.80;;
44572;SDS011;31762;45.420;10.072;2022-07-22T12:19:49;1.27;;;0.95;;
44572;SDS011;31762;45.420;10.072;2022-07-22T12:24:58;1.00;;;0.70;;
44572;SDS011;31762;45.420;10.072;2022-07-22T12:30:01;1.38;;;0.90;;
44572;SDS011;31762;45.420;10.072;2022-07-22T12:35:14;2.33;;;0.90;;
44572;SDS011;31762;45.420;10.072;2022-07-22T12:45:19;1.17;;;0.98;;
44572;SDS011;31762;45.420;10.072;2022-07-22T12:55:28;2.57;;;1.30;;
44572;SDS011;31762;45.420;10.072;2022-07-22T13:00:31;1.87;;;1.33;;
44572;SDS011;31762;45.420;10.072;2022-07-22T13:05:35;1.40;;;0.98;;
44572;SDS011;31762;45.420;10.072;2022-07-22T13:10:37;1.45;;;0.90;;
44572;SDS011;31762;45.420;10.072;2022-07-22T13:15:39;4.82;;;1.35;;
44572;SDS011;31762;45.420;10.072;2022-07-22T13:20:41;3.17;;;0.90;;
44572;SDS011;31762;45.420;10.072;2022-07-22T13:25:43;3.10;;;1.53;;
44572;SDS011;31762;45.420;10.072;2022-07-22T13:30:45;3.15;;;1.02;;
44572;SDS011;31762;45.420;10.072;2022-07-22T13:35:47;1.63;;;1.23;;
44572;SDS011;31762;45.420;10.072;2022-07-22T13:40:49;1.40;;;1.02;;
44572;SDS011;31762;45.420;10.072;2022-07-22T13:45:51;2.30;;;1.10;;
44572;SDS011;31762;45.420;10.072;2022-07-22T13:50:53;1.45;;;1.05;;
44572;SDS011;31762;45.420;10.072;2022-07-22T13:55:55;3.10;;;1.30;;
44572;SDS011;31762;45.420;10.072;2022-07-22T14:00:57;3.67;;;1.30;;
44572;SDS011;31762;45.420;10.072;2022-07-22T14:05:59;3.07;;;1.30;;
44572;SDS011;31762;45.420;10.072;2022-07-22T14:11:01;1.80;;;1.45;;
44572;SDS011;31762;45.420;10.072;2022-07-22T14:16:03;1.77;;;1.40;;
44572;SDS011;31762;45.420;10.072;2022-07-22T14:21:05;3.20;;;1.83;;
44572;SDS011;31762;45.420;10.072;2022-07-22T14:26:07;2.13;;;1.42;;
44572;SDS011;31762;45.420;10.072;2022-07-22T14:31:09;2.05;;;1.50;;
44572;SDS011;31762;45.420;10.072;2022-07-22T14:36:10;3.30;;;1.30;;
44572;SDS011;31762;45.420;10.072;2022-07-22T14:41:12;2.53;;;1.50;;
44572;SDS011;31762;45.420;10.072;2022-07-22T14:46:14;3.65;;;1.80;;
44572;SDS011;31762;45.420;10.072;2022-07-22T14:51:16;2.30;;;1.83;;
44572;SDS011;31762;45.420;10.072;2022-07-22T14:56:18;3.30;;;1.43;;
44572;SDS011;31762;45.420;10.072;2022-07-22T15:01:20;3.75;;;2.00;;
44572;SDS011;31762;45.420;10.072;2022-07-22T15:06:27;2.40;;;1.63;;
44572;SDS011;31762;45.420;10.072;2022-07-22T15:11:29;4.07;;;1.80;;
44572;SDS011;31762;45.420;10.072;2022-07-22T15:16:31;3.30;;;1.70;;
44572;SDS011;31762;45.420;10.072;2022-07-22T15:21:33;2.90;;;1.77;;
44572;SDS011;31762;45.420;10.072;2022-07-22T15:26:35;2.22;;;1.40;;
44572;SDS011;31762;45.420;10.072;2022-07-22T15:31:36;3.70;;;1.90;;
44572;SDS011;31762;45.420;10.072;2022-07-22T15:36:38;1.73;;;1.27;;
44572;SDS011;31762;45.420;10.072;2022-07-22T15:41:40;1.85;;;1.35;;
44572;SDS011;31762;45.420;10.072;2022-07-22T15:46:42;4.10;;;1.20;;
44572;SDS011;31762;45.420;10.072;2022-07-22T15:51:44;2.97;;;1.57;;
44572;SDS011;31762;45.420;10.072;2022-07-22T15:56:45;3.15;;;1.50;;
44572;SDS011;31762;45.420;10.072;2022-07-22T16:01:47;2.00;;;1.58;;
44572;SDS011;31762;45.420;10.072;2022-07-22T16:06:49;2.37;;;1.40;;
44572;SDS011;31762;45.420;10.072;2022-07-22T16:11:52;1.88;;;1.30;;
44572;SDS011;31762;45.420;10.072;2022-07-22T16:16:53;2.47;;;1.45;;
44572;SDS011;31762;45.420;10.072;2022-07-22T16:21:55;3.90;;;1.73;;
44572;SDS011;31762;45.420;10.072;2022-07-22T16:26:57;2.50;;;2.25;;
44572;SDS011;31762;45.420;10.072;2022-07-22T16:31:59;2.80;;;2.20;;
44572;SDS011;31762;45.420;10.072;2022-07-22T16:37:01;3.35;;;2.10;;
44572;SDS011;31762;45.420;10.072;2022-07-22T16:42:03;3.47;;;2.40;;
44572;SDS011;31762;45.420;10.072;2022-07-22T16:47:04;1.83;;;1.70;;
44572;SDS011;31762;45.420;10.072;2022-07-22T16:52:06;3.65;;;2.05;;
44572;SDS011;31762;45.420;10.072;2022-07-22T16:57:08;11.68;;;4.70;;
44572;SDS011;31762;45.420;10.072;2022-07-22T17:02:10;13.90;;;4.68;;
44572;SDS011;31762;45.420;10.072;2022-07-22T17:07:12;4.27;;;2.33;;
44572;SDS011;31762;45.420;10.072;2022-07-22T17:12:13;4.15;;;2.65;;
44572;SDS011;31762;45.420;10.072;2022-07-22T17:17:15;3.87;;;1.83;;
44572;SDS011;31762;45.420;10.072;2022-07-22T17:22:17;4.50;;;2.10;;
44572;SDS011;31762;45.420;10.072;2022-07-22T17:27:19;7.83;;;4.17;;
44572;SDS011;31762;45.420;10.072;2022-07-22T17:32:27;4.78;;;2.92;;
44572;SDS011;31762;45.420;10.072;2022-07-22T17:37:29;2.30;;;1.80;;
44572;SDS011;31762;45.420;10.072;2022-07-22T17:42:30;4.72;;;2.95;;
44572;SDS011;31762;45.420;10.072;2022-07-22T17:47:32;8.87;;;4.80;;
44572;SDS011;31762;45.420;10.072;2022-07-22T17:52:34;3.63;;;2.17;;
44572;SDS011;31762;45.420;10.072;2022-07-22T17:57:36;5.50;;;2.40;;
44572;SDS011;31762;45.420;10.072;2022-07-22T18:02:37;7.80;;;2.55;;
44572;SDS011;31762;45.420;10.072;2022-07-22T18:07:39;3.00;;;2.50;;
44572;SDS011;31762;45.420;10.072;2022-07-22T18:12:41;2.83;;;2.50;;
44572;SDS011;31762;45.420;10.072;2022-07-22T18:17:43;5.43;;;2.42;;
44572;SDS011;31762;45.420;10.072;2022-07-22T18:22:44;3.63;;;2.67;;
44572;SDS011;31762;45.420;10.072;2022-07-22T18:27:46;3.10;;;2.80;;
44572;SDS011;31762;45.420;10.072;2022-07-22T18:32:48;4.85;;;3.05;;
44572;SDS011;31762;45.420;10.072;2022-07-22T18:37:50;4.20;;;2.63;;
44572;SDS011;31762;45.420;10.072;2022-07-22T18:42:51;4.85;;;2.67;;
44572;SDS011;31762;45.420;10.072;2022-07-22T18:47:53;6.00;;;3.67;;
44572;SDS011;31762;45.420;10.072;2022-07-22T18:52:55;3.75;;;3.20;;
44572;SDS011;31762;45.420;10.072;2022-07-22T18:57:57;4.25;;;2.72;;
44572;SDS011;31762;45.420;10.072;2022-07-22T19:02:58;4.07;;;2.92;;
44572;SDS011;31762;45.420;10.072;2022-07-22T19:08:00;4.20;;;2.90;;
44572;SDS011;31762;45.420;10.072;2022-07-22T19:13:02;3.97;;;3.53;;
44572;SDS011;31762;45.420;10.072;2022-07-22T19:18:04;6.10;;;3.08;;
44572;SDS011;31762;45.420;10.072;2022-07-22T19:23:05;5.83;;;2.83;;
44572;SDS011;31762;45.420;10.072;2022-07-22T19:28:07;5.80;;;2.85;;
44572;SDS011;31762;45.420;10.072;2022-07-22T19:33:09;4.53;;;2.73;;
44572;SDS011;31762;45.420;10.072;2022-07-22T19:38:11;4.63;;;3.35;;
44572;SDS011;31762;45.420;10.072;2022-07-22T19:43:13;6.40;;;2.83;;
44572;SDS011;31762;45.420;10.072;2022-07-22T19:48:14;6.05;;;2.90;;
44572;SDS011;31762;45.420;10.072;2022-07-22T19:53:16;3.25;;;2.72;;
44572;SDS011;31762;45.420;10.072;2022-07-22T19:58:18;3.90;;;2.92;;
44572;SDS011;31762;45.420;10.072;2022-07-22T20:03:20;3.75;;;2.55;;
44572;SDS011;31762;45.420;10.072;2022-07-22T20:08:22;5.97;;;3.10;;
44572;SDS011;31762;45.420;10.072;2022-07-22T20:13:23;4.32;;;3.67;;
44572;SDS011;31762;45.420;10.072;2022-07-22T20:18:25;4.18;;;3.50;;
44572;SDS011;31762;45.420;10.072;2022-07-22T20:23:27;4.85;;;4.13;;
44572;SDS011;31762;45.420;10.072;2022-07-22T20:28:29;6.17;;;4.17;;
44572;SDS011;31762;45.420;10.072;2022-07-22T20:33:31;6.22;;;4.70;;
44572;SDS011;31762;45.420;10.072;2022-07-22T20:38:33;9.63;;;5.40;;
44572;SDS011;31762;45.420;10.072;2022-07-22T20:43:34;4.68;;;4.25;;
44572;SDS011;31762;45.420;10.072;2022-07-22T20:48:37;5.87;;;3.90;;
44572;SDS011;31762;45.420;10.072;2022-07-22T20:53:40;5.53;;;3.38;;
44572;SDS011;31762;45.420;10.072;2022-07-22T20:58:42;5.72;;;4.78;;
44572;SDS011;31762;45.420;10.072;2022-07-22T21:03:44;4.95;;;3.70;;
44572;SDS011;31762;45.420;10.072;2022-07-22T21:08:45;6.30;;;4.78;;
44572;SDS011;31762;45.420;10.072;2022-07-22T21:13:48;4.90;;;4.30;;
44572;SDS011;31762;45.420;10.072;2022-07-22T21:18:49;5.65;;;4.25;;
44572;SDS011;31762;45.420;10.072;2022-07-22T21:23:51;6.30;;;4.40;;
44572;SDS011;31762;45.420;10.072;2022-07-22T21:28:53;6.40;;;5.50;;
44572;SDS011;31762;45.420;10.072;2022-07-22T21:33:55;6.38;;;4.18;;
44572;SDS011;31762;45.420;10.072;2022-07-22T21:38:57;5.53;;;4.07;;
44572;SDS011;31762;45.420;10.072;2022-07-22T21:43:59;6.65;;;4.18;;
44572;SDS011;31762;45.420;10.072;2022-07-22T21:49:01;6.35;;;4.47;;
44572;SDS011;31762;45.420;10.072;2022-07-22T21:54:04;6.40;;;4.07;;
44572;SDS011;31762;45.420;10.072;2022-07-22T21:59:05;4.85;;;4.32;;
44572;SDS011;31762;45.420;10.072;2022-07-22T22:04:07;4.75;;;3.50;;
44572;SDS011;31762;45.420;10.072;2022-07-22T22:09:09;6.47;;;3.67;;
44572;SDS011;31762;45.420;10.072;2022-07-22T22:14:11;4.73;;;3.50;;
44572;SDS011;31762;45.420;10.072;2022-07-22T22:19:16;4.15;;;3.60;;
44572;SDS011;31762;45.420;10.072;2022-07-22T22:24:18;4.40;;;3.72;;
44572;SDS011;31762;45.420;10.072;2022-07-22T22:29:20;3.77;;;3.47;;
44572;SDS011;31762;45.420;10.072;2022-07-22T22:34:21;5.57;;;3.90;;
44572;SDS011;31762;45.420;10.072;2022-07-22T22:39:23;5.47;;;3.90;;
44572;SDS011;31762;45.420;10.072;2022-07-22T22:44:25;6.68;;;3.60;;
44572;SDS011;31762;45.420;10.072;2022-07-22T22:49:27;6.03;;;3.83;;
44572;SDS011;31762;45.420;10.072;2022-07-22T22:54:29;5.60;;;4.15;;
44572;SDS011;31762;45.420;10.072;2022-07-22T22:59:30;5.03;;;4.07;;
44572;SDS011;31762;45.420;10.072;2022-07-22T23:04:32;6.57;;;3.80;;
44572;SDS011;31762;45.420;10.072;2022-07-22T23:09:34;4.13;;;3.70;;
44572;SDS011;31762;45.420;10.072;2022-07-22T23:14:36;5.28;;;3.55;;
44572;SDS011;31762;45.420;10.072;2022-07-22T23:19:38;4.70;;;3.37;;
44572;SDS011;31762;45.420;10.072;2022-07-22T23:24:40;5.55;;;3.55;;
44572;SDS011;31762;45.420;10.072;2022-07-22T23:29:42;6.47;;;3.20;;
44572;SDS011;31762;45.420;10.072;2022-07-22T23:34:44;5.18;;;3.20;;
44572;SDS011;31762;45.420;10.072;2022-07-22T23:39:45;3.53;;;2.95;;
44572;SDS011;31762;45.420;10.072;2022-07-22T23:44:47;4.27;;;3.50;;
44572;SDS011;31762;45.420;10.072;2022-07-22T23:49:49;5.07;;;3.30;;
44572;SDS011;31762;45.420;10.072;2022-07-22T23:54:51;4.13;;;3.47;;
44572;SDS011;31762;45.420;10.072;2022-07-22T23:59:52;4.30;;;3.38;;
